www.cux-wetter.de
Wetterdaten: Donnerstag, 27.11.2014
Datum Zeit Temp. A. Feuchte A. Luftdruck Regen Wind Richtung Richtung Sonnenschein Solar Taupunkt Windchill Windben
27.11.2014 00:00 4,5 C 86 % 1015,5 hPa 0,0 l/m 19,5 km/h (3 Bft) S-SO 160 0 min 0 W/m 2,4 C -3,6 C 19,5 km/h (3 Bft)
27.11.2014 00:15 4,5 C 86 % 1015,5 hPa 0,0 l/m 21,3 km/h (4 Bft) S-SO 150 0 min 0 W/m 2,4 C -4,3 C 21,3 km/h (4 Bft)
27.11.2014 00:30 4,5 C 86 % 1015,5 hPa 0,0 l/m 21,5 km/h (4 Bft) SO 140 0 min 0 W/m 2,4 C -4,4 C 21,5 km/h (4 Bft)
27.11.2014 00:45 4,4 C 86 % 1015,5 hPa 0,0 l/m 22,1 km/h (4 Bft) SO 145 0 min 0 W/m 2,3 C -4,8 C 22,1 km/h (4 Bft)
27.11.2014 01:00 4,3 C 86 % 1014,5 hPa 0,0 l/m 22,8 km/h (4 Bft) S-SO 150 0 min 0 W/m 2,2 C -5,1 C 22,8 km/h (4 Bft)
27.11.2014 01:15 4,3 C 86 % 1014,5 hPa 0,0 l/m 22,4 km/h (4 Bft) S-SO 155 0 min 0 W/m 2,2 C -5,0 C 22,4 km/h (4 Bft)
27.11.2014 01:30 4,2 C 86 % 1014,5 hPa 0,0 l/m 28,5 km/h (5 Bft) SO 145 0 min 0 W/m 2,1 C -7,1 C 28,5 km/h (5 Bft)
27.11.2014 01:45 4,2 C 86 % 1014,5 hPa 0,0 l/m 19,5 km/h (3 Bft) S-SO 150 0 min 0 W/m 2,1 C -4,0 C 19,5 km/h (3 Bft)
27.11.2014 02:00 4,2 C 87 % 1014,5 hPa 0,0 l/m 20,8 km/h (4 Bft) O-SO 115 0 min 0 W/m 2,2 C -4,5 C 20,8 km/h (4 Bft)
27.11.2014 02:15 4,1 C 87 % 1014,5 hPa 0,0 l/m 22,2 km/h (4 Bft) SO 130 0 min 0 W/m 2,1 C -5,2 C 22,2 km/h (4 Bft)
27.11.2014 02:30 4,1 C 87 % 1013,5 hPa 0,0 l/m 24,8 km/h (4 Bft) O-SO 115 0 min 0 W/m 2,1 C -6,1 C 24,8 km/h (4 Bft)
27.11.2014 02:45 4,1 C 87 % 1013,5 hPa 0,0 l/m 25,3 km/h (4 Bft) S-SO 150 0 min 0 W/m 2,1 C -6,3 C 25,3 km/h (4 Bft)
27.11.2014 03:00 3,9 C 87 % 1013,5 hPa 0,0 l/m 26,8 km/h (4 Bft) SO 145 0 min 0 W/m 1,9 C -7,0 C 26,8 km/h (4 Bft)
27.11.2014 03:15 3,9 C 87 % 1013,5 hPa 0,0 l/m 19,1 km/h (3 Bft) S-SO 160 0 min 0 W/m 1,9 C -4,2 C 19,1 km/h (3 Bft)
27.11.2014 03:30 3,8 C 87 % 1013,5 hPa 0,0 l/m 23,6 km/h (4 Bft) S-SO 160 0 min 0 W/m 1,8 C -6,1 C 23,6 km/h (4 Bft)
27.11.2014 03:45 3,7 C 86 % 1013,5 hPa 0,0 l/m 17,3 km/h (3 Bft) SO 130 0 min 0 W/m 1,6 C -3,7 C 17,3 km/h (3 Bft)
27.11.2014 04:00 3,7 C 87 % 1013,5 hPa 0,0 l/m 23,5 km/h (4 Bft) SO 125 0 min 0 W/m 1,7 C -6,2 C 23,5 km/h (4 Bft)
27.11.2014 04:15 3,7 C 87 % 1013,5 hPa 0,0 l/m 27,0 km/h (5 Bft) SO 145 0 min 0 W/m 1,7 C -7,3 C 27,0 km/h (5 Bft)
27.11.2014 04:30 3,7 C 87 % 1012,5 hPa 0,0 l/m 28,0 km/h (5 Bft) SO 140 0 min 0 W/m 1,7 C -7,6 C 28,0 km/h (5 Bft)
27.11.2014 04:45 3,6 C 87 % 1012,5 hPa 0,0 l/m 24,3 km/h (4 Bft) S-SO 150 0 min 0 W/m 1,6 C -6,6 C 24,3 km/h (4 Bft)
27.11.2014 05:00 3,5 C 87 % 1012,5 hPa 0,0 l/m 25,9 km/h (4 Bft) SO 145 0 min 0 W/m 1,5 C -7,3 C 25,9 km/h (4 Bft)
27.11.2014 05:15 3,5 C 87 % 1012,5 hPa 0,0 l/m 26,3 km/h (4 Bft) S 170 0 min 0 W/m 1,5 C -7,4 C 26,3 km/h (4 Bft)
27.11.2014 05:30 3,5 C 87 % 1012,5 hPa 0,0 l/m 19,8 km/h (3 Bft) SO 145 0 min 0 W/m 1,5 C -5,0 C 19,8 km/h (3 Bft)
27.11.2014 05:45 3,4 C 87 % 1012,5 hPa 0,0 l/m 32,4 km/h (5 Bft) S 170 0 min 0 W/m 1,4 C -9,3 C 32,4 km/h (5 Bft)
27.11.2014 06:00 3,3 C 86 % 1012,5 hPa 0,0 l/m 23,5 km/h (4 Bft) S-SO 155 0 min 0 W/m 1,2 C -6,7 C 23,5 km/h (4 Bft)
27.11.2014 06:15 3,1 C 86 % 1012,5 hPa 0,0 l/m 26,1 km/h (4 Bft) SO 145 0 min 0 W/m 1,0 C -7,9 C 26,1 km/h (4 Bft)
27.11.2014 06:30 3,2 C 87 % 1012,5 hPa 0,0 l/m 30,3 km/h (5 Bft) O-SO 120 0 min 0 W/m 1,2 C -9,0 C 30,3 km/h (5 Bft)
27.11.2014 06:45 3,2 C 87 % 1012,5 hPa 0,0 l/m 25,3 km/h (4 Bft) S-SO 150 0 min 0 W/m 1,2 C -7,5 C 25,3 km/h (4 Bft)
27.11.2014 07:00 3,2 C 87 % 1012,5 hPa 0,0 l/m 34,7 km/h (5 Bft) SO 140 0 min 0 W/m 1,2 C -10,1 C 34,7 km/h (5 Bft)
27.11.2014 07:15 3,1 C 87 % 1012,5 hPa 0,0 l/m 22,5 km/h (4 Bft) S-SO 155 0 min 0 W/m 1,2 C -6,6 C 22,5 km/h (4 Bft)
27.11.2014 07:30 3,1 C 87 % 1011,5 hPa 0,0 l/m 26,6 km/h (4 Bft) S-SO 150 0 min 0 W/m 1,2 C -8,0 C 26,6 km/h (4 Bft)
27.11.2014 07:45 3,2 C 87 % 1011,5 hPa 0,0 l/m 24,3 km/h (4 Bft) SO 130 0 min 0 W/m 1,2 C -7,1 C 24,3 km/h (4 Bft)
27.11.2014 08:00 3,3 C 87 % 1012,5 hPa 0,0 l/m 26,0 km/h (4 Bft) SO 145 0 min 0 W/m 1,3 C -7,6 C 26,0 km/h (4 Bft)
27.11.2014 08:15 3,3 C 87 % 1012,5 hPa 0,0 l/m 28,3 km/h (5 Bft) S-SO 160 0 min 0 W/m 1,3 C -8,3 C 28,3 km/h (5 Bft)
27.11.2014 08:30 3,3 C 86 % 1012,5 hPa 0,0 l/m 18,3 km/h (3 Bft) S-SO 165 0 min 0 W/m 1,2 C -4,6 C 18,3 km/h (3 Bft)
27.11.2014 08:45 3,3 C 86 % 1012,5 hPa 0,0 l/m 23,3 km/h (4 Bft) SO 145 0 min 0 W/m 1,2 C -6,7 C 23,3 km/h (4 Bft)
27.11.2014 09:00 3,4 C 86 % 1012,5 hPa 0,0 l/m 25,5 km/h (4 Bft) S-SO 150 0 min 0 W/m 1,3 C -7,3 C 25,5 km/h (4 Bft)
27.11.2014 09:15 3,4 C 86 % 1012,5 hPa 0,0 l/m 20,6 km/h (4 Bft) SO 135 0 min 0 W/m 1,3 C -5,5 C 20,6 km/h (4 Bft)
27.11.2014 09:30 3,4 C 86 % 1012,5 hPa 0,0 l/m 24,3 km/h (4 Bft) SO 135 0 min 0 W/m 1,3 C -6,9 C 24,3 km/h (4 Bft)
27.11.2014 09:45 3,5 C 85 % 1012,5 hPa 0,0 l/m 23,0 km/h (4 Bft) S-SO 150 0 min 0 W/m 1,2 C -6,3 C 23,0 km/h (4 Bft)
27.11.2014 10:00 3,5 C 85 % 1012,5 hPa 0,0 l/m 22,3 km/h (4 Bft) SO 145 0 min 0 W/m 1,2 C -6,0 C 22,3 km/h (4 Bft)
27.11.2014 10:15 3,7 C 85 % 1012,5 hPa 0,0 l/m 28,4 km/h (5 Bft) SO 140 0 min 0 W/m 1,4 C -7,8 C 28,4 km/h (5 Bft)
27.11.2014 10:30 3,9 C 84 % 1011,5 hPa 0,0 l/m 28,5 km/h (5 Bft) SO 130 0 min 0 W/m 1,4 C -7,5 C 28,5 km/h (5 Bft)
27.11.2014 10:45 4,0 C 85 % 1011,5 hPa 0,0 l/m 22,8 km/h (4 Bft) SO 135 0 min 0 W/m 1,7 C -5,5 C 22,8 km/h (4 Bft)
27.11.2014 11:00 4,0 C 85 % 1011,5 hPa 0,0 l/m 19,3 km/h (3 Bft) SO 125 0 min 0 W/m 1,7 C -4,2 C 19,3 km/h (3 Bft)
27.11.2014 11:15 4,1 C 84 % 1011,5 hPa 0,0 l/m 21,1 km/h (4 Bft) SO 145 0 min 0 W/m 1,6 C -4,8 C 21,1 km/h (4 Bft)
27.11.2014 11:30 4,3 C 83 % 1011,5 hPa 0,0 l/m 23,4 km/h (4 Bft) SO 135 0 min 0 W/m 1,7 C -5,4 C 23,4 km/h (4 Bft)
27.11.2014 11:45 4,8 C 82 % 1011,5 hPa 0,0 l/m 20,8 km/h (4 Bft) SO 140 0 min 0 W/m 2,0 C -3,7 C 20,8 km/h (4 Bft)
27.11.2014 12:00 5,2 C 82 % 1011,5 hPa 0,0 l/m 20,6 km/h (4 Bft) S-SO 150 0 min 0 W/m 2,4 C -3,1 C 20,6 km/h (4 Bft)
27.11.2014 12:15 5,1 C 81 % 1011,5 hPa 0,0 l/m 20,3 km/h (4 Bft) SO 125 0 min 0 W/m 2,1 C -3,2 C 20,3 km/h (4 Bft)
27.11.2014 12:30 4,7 C 80 % 1011,5 hPa 0,0 l/m 23,3 km/h (4 Bft) S-SO 150 0 min 0 W/m 1,6 C -4,8 C 23,3 km/h (4 Bft)
27.11.2014 12:45 4,7 C 81 % 1011,5 hPa 0,0 l/m 25,8 km/h (4 Bft) SO 140 0 min 0 W/m 1,7 C -5,6 C 25,8 km/h (4 Bft)
27.11.2014 13:00 4,9 C 81 % 1011,5 hPa 0,0 l/m 22,6 km/h (4 Bft) SO 140 0 min 0 W/m 1,9 C -4,3 C 22,6 km/h (4 Bft)
27.11.2014 13:14 4,9 C 81 % 1011,5 hPa 0,0 l/m 19,9 km/h (4 Bft) N 350 0 min 0 W/m 1,9 C -3,3 C 19,9 km/h (4 Bft)
27.11.2014 13:30 4,9 C 80 % 1011,5 hPa 0,0 l/m 26,0 km/h (4 Bft) SO 135 0 min 0 W/m 1,7 C -5,4 C 26,0 km/h (4 Bft)
27.11.2014 13:45 5,1 C 80 % 1011,5 hPa 0,0 l/m 25,6 km/h (4 Bft) SO 135 0 min 0 W/m 1,9 C -5,0 C 25,6 km/h (4 Bft)
27.11.2014 14:00 5,1 C 80 % 1011,5 hPa 0,0 l/m 21,5 km/h (4 Bft) SO 135 0 min 0 W/m 1,9 C -3,6 C 21,5 km/h (4 Bft)
27.11.2014 14:15 4,9 C 79 % 1011,5 hPa 0,0 l/m 18,5 km/h (3 Bft) SO 140 0 min 0 W/m 1,6 C -2,7 C 18,5 km/h (3 Bft)
27.11.2014 14:30 4,8 C 80 % 1010,5 hPa 0,0 l/m 25,1 km/h (4 Bft) SO 135 0 min 0 W/m 1,6 C -5,2 C 25,1 km/h (4 Bft)
27.11.2014 14:45 4,7 C 80 % 1010,5 hPa 0,0 l/m 21,7 km/h (4 Bft) O-SO 120 0 min 0 W/m 1,6 C -4,2 C 21,7 km/h (4 Bft)
27.11.2014 15:00 4,6 C 80 % 1010,5 hPa 0,0 l/m 23,7 km/h (4 Bft) SO 125 0 min 0 W/m 1,5 C -5,1 C 23,7 km/h (4 Bft)
27.11.2014 15:15 4,6 C 80 % 1010,5 hPa 0,0 l/m 23,4 km/h (4 Bft) O-SO 115 0 min 0 W/m 1,5 C -5,0 C 23,4 km/h (4 Bft)
27.11.2014 15:30 4,5 C 80 % 1010,5 hPa 0,0 l/m 27,4 km/h (5 Bft) SO 125 0 min 0 W/m 1,4 C -6,4 C 27,4 km/h (5 Bft)
27.11.2014 15:45 4,5 C 80 % 1010,5 hPa 0,0 l/m 23,0 km/h (4 Bft) SO 130 0 min 0 W/m 1,4 C -4,9 C 23,0 km/h (4 Bft)
27.11.2014 16:00 4,4 C 81 % 1010,5 hPa 0,0 l/m 22,0 km/h (4 Bft) SO 140 0 min 0 W/m 1,4 C -4,7 C 22,0 km/h (4 Bft)
27.11.2014 16:15 4,4 C 81 % 1010,5 hPa 0,0 l/m 16,5 km/h (3 Bft) SO 135 0 min 0 W/m 1,4 C -2,4 C 16,5 km/h (3 Bft)
27.11.2014 16:30 4,6 C 82 % 1010,5 hPa 0,0 l/m 18,6 km/h (3 Bft) O 95 0 min 0 W/m 1,8 C -3,1 C 18,6 km/h (3 Bft)
27.11.2014 16:45 4,3 C 82 % 1010,5 hPa 0,0 l/m 21,8 km/h (4 Bft) O-SO 120 0 min 0 W/m 1,5 C -4,8 C 21,8 km/h (4 Bft)
27.11.2014 17:00 4,3 C 82 % 1011,5 hPa 0,0 l/m 17,5 km/h (3 Bft) SO 125 0 min 0 W/m 1,5 C -3,0 C 17,5 km/h (3 Bft)
27.11.2014 17:15 4,2 C 83 % 1010,5 hPa 0,0 l/m 19,4 km/h (3 Bft) O-SO 120 0 min 0 W/m 1,6 C -4,0 C 19,4 km/h (3 Bft)
27.11.2014 17:30 4,1 C 83 % 1011,5 hPa 0,0 l/m 21,6 km/h (4 Bft) SO 135 0 min 0 W/m 1,5 C -5,0 C 21,6 km/h (4 Bft)
27.11.2014 17:44 4,1 C 83 % 1011,5 hPa 0,0 l/m 24,3 km/h (4 Bft) SO 135 0 min 0 W/m 1,5 C -5,9 C 24,3 km/h (4 Bft)
27.11.2014 18:00 4,0 C 83 % 1011,5 hPa 0,0 l/m 23,5 km/h (4 Bft) SO 140 0 min 0 W/m 1,4 C -5,8 C 23,5 km/h (4 Bft)
27.11.2014 18:15 3,9 C 83 % 1011,5 hPa 0,0 l/m 22,6 km/h (4 Bft) SO 145 0 min 0 W/m 1,3 C -5,6 C 22,6 km/h (4 Bft)
27.11.2014 18:30 3,9 C 83 % 1011,5 hPa 0,0 l/m 18,6 km/h (3 Bft) SO 125 0 min 0 W/m 1,3 C -4,0 C 18,6 km/h (3 Bft)
27.11.2014 18:45 3,9 C 83 % 1011,5 hPa 0,0 l/m 17,6 km/h (3 Bft) SO 140 0 min 0 W/m 1,3 C -3,5 C 17,6 km/h (3 Bft)
27.11.2014 19:00 3,9 C 83 % 1011,5 hPa 0,0 l/m 25,1 km/h (4 Bft) SO 140 0 min 0 W/m 1,3 C -6,5 C 25,1 km/h (4 Bft)
27.11.2014 19:15 3,8 C 82 % 1011,5 hPa 0,0 l/m 24,4 km/h (4 Bft) SO 140 0 min 0 W/m 1,0 C -6,4 C 24,4 km/h (4 Bft)
27.11.2014 19:30 3,8 C 82 % 1011,5 hPa 0,0 l/m 25,4 km/h (4 Bft) SO 125 0 min 0 W/m 1,0 C -6,7 C 25,4 km/h (4 Bft)
27.11.2014 19:45 3,8 C 82 % 1011,5 hPa 0,0 l/m 22,0 km/h (4 Bft) SO 140 0 min 0 W/m 1,0 C -5,5 C 22,0 km/h (4 Bft)
27.11.2014 20:00 3,7 C 82 % 1011,5 hPa 0,0 l/m 23,0 km/h (4 Bft) S-SO 150 0 min 0 W/m 0,9 C -6,0 C 23,0 km/h (4 Bft)
27.11.2014 20:15 3,8 C 82 % 1011,5 hPa 0,0 l/m 22,5 km/h (4 Bft) SO 140 0 min 0 W/m 1,0 C -5,7 C 22,5 km/h (4 Bft)
27.11.2014 20:30 3,7 C 82 % 1011,5 hPa 0,0 l/m 22,2 km/h (4 Bft) SO 135 0 min 0 W/m 0,9 C -5,7 C 22,2 km/h (4 Bft)
27.11.2014 20:45 3,6 C 82 % 1011,5 hPa 0,0 l/m 27,1 km/h (5 Bft) O-SO 110 0 min 0 W/m 0,8 C -7,5 C 27,1 km/h (5 Bft)
27.11.2014 21:00 3,6 C 82 % 1011,5 hPa 0,0 l/m 25,1 km/h (4 Bft) SO 135 0 min 0 W/m 0,8 C -6,9 C 25,1 km/h (4 Bft)
27.11.2014 21:15 3,5 C 82 % 1011,5 hPa 0,0 l/m 28,3 km/h (5 Bft) SO 130 0 min 0 W/m 0,7 C -8,0 C 28,3 km/h (5 Bft)
27.11.2014 21:30 3,5 C 82 % 1011,5 hPa 0,0 l/m 34,7 km/h (5 Bft) SO 130 0 min 0 W/m 0,7 C -9,7 C 34,7 km/h (5 Bft)
27.11.2014 21:45 3,5 C 82 % 1012,5 hPa 0,0 l/m 25,0 km/h (4 Bft) SO 145 0 min 0 W/m 0,7 C -7,0 C 25,0 km/h (4 Bft)
27.11.2014 22:00 3,5 C 82 % 1012,5 hPa 0,0 l/m 27,8 km/h (5 Bft) SO 140 0 min 0 W/m 0,7 C -7,9 C 27,8 km/h (5 Bft)
27.11.2014 22:15 3,6 C 82 % 1012,5 hPa 0,0 l/m 26,6 km/h (4 Bft) S-SO 150 0 min 0 W/m 0,8 C -7,4 C 26,6 km/h (4 Bft)
27.11.2014 22:30 3,5 C 82 % 1012,5 hPa 0,0 l/m 32,8 km/h (5 Bft) O-SO 120 0 min 0 W/m 0,7 C -9,2 C 32,8 km/h (5 Bft)
27.11.2014 22:45 3,5 C 82 % 1012,5 hPa 0,0 l/m 30,7 km/h (5 Bft) SO 145 0 min 0 W/m 0,7 C -8,7 C 30,7 km/h (5 Bft)
27.11.2014 23:00 3,5 C 83 % 1012,5 hPa 0,0 l/m 28,5 km/h (5 Bft) SO 130 0 min 0 W/m 0,9 C -8,1 C 28,5 km/h (5 Bft)
27.11.2014 23:15 3,5 C 83 % 1012,5 hPa 0,0 l/m 23,8 km/h (4 Bft) SO 125 0 min 0 W/m 0,9 C -6,6 C 23,8 km/h (4 Bft)
27.11.2014 23:30 3,3 C 83 % 1012,5 hPa 0,0 l/m 22,1 km/h (4 Bft) SO 135 0 min 0 W/m 0,7 C -6,2 C 22,1 km/h (4 Bft)
27.11.2014 23:45 3,3 C 84 % 1012,5 hPa 0,0 l/m 25,7 km/h (4 Bft) O-SO 110 0 min 0 W/m 0,9 C -7,5 C 25,7 km/h (4 Bft)
_ Min-Zeit 06:15 14:15 14:30 - 16:15 - - - - 23:30 07:00 16:15
Minimum _ 3,1 C 79 % 1010,5 hPa - 16,5 km/h (3 Bft) - - - - 0,7 C -10,1 C 16,5 km/h (3 Bft)
_ Max-Zeit 12:00 02:00 00:00 00:00 07:00 - - 00:00 00:00 12:00 16:15 07:00
Maximum _ 5,2 C 87 % 1015,5 hPa 0,0 l/m 34,7 km/h
SO (5 Bft)
- - 0 min 0 W/m 2,4 C -2,4 C 34,7 km/h
SO (5 Bft)
Durchschnitt _ 3,9 C 84 % 1012,2 hPa #0,0 l/m 23,9 km/h (4 Bft) SO - #0 min. 0 W/m 1,5 C -5,9 C 23,9 km/h (4 Bft)
copyright by Holger Just